.
WxDataArchive / Data Records for 2011-04-26
2011-04-25 April 2011 2011-04-27

Data Records for Tuesday, 26 April 2011

Time	Temp	Chill	HIndex	Humid	Dewpt	 Wind 	HiWind	WindDir	Rain 	Barom 
-----	----	-----	------	-----	-----	------	------	-------	-----	----- 
00:00	48.0	46.6	48.0	96	46.9	4	9	112	0.00	29.780 
00:05	48.0	46.6	48.0	96	46.9	4	7	90	0.00	29.780 
00:10	48.0	48.0	48.0	96	46.9	3	7	112	0.00	29.780 
00:15	48.0	48.0	48.0	96	46.9	2	5	90	0.00	29.784 
00:20	48.0	48.0	48.0	96	46.9	3	7	90	0.00	29.784 
00:25	47.9	46.4	47.9	96	46.8	4	9	112	0.00	29.784 
00:30	47.9	47.9	47.9	96	46.8	3	7	112	0.00	29.753 
00:35	47.7	45.5	47.7	96	46.6	5	11	90	0.00	29.753 
00:40	47.7	46.2	47.7	96	46.6	4	9	90	0.00	29.753 
00:45	47.7	47.7	47.7	96	46.6	3	6	112	0.00	29.757 
00:50	47.7	46.2	47.7	96	46.6	4	10	112	0.00	29.757 
00:55	47.7	46.2	47.7	96	46.6	4	13	90	0.00	29.757 
01:00	47.6	45.4	47.6	96	46.5	5	10	90	0.00	29.740 
01:05	47.4	45.9	47.4	96	46.3	4	11	90	0.00	29.740 
01:10	47.4	45.9	47.4	96	46.3	4	12	112	0.00	29.740 
01:15	47.4	45.2	47.4	96	46.3	5	12	112	0.00	29.735 
01:20	47.3	44.5	47.3	96	46.2	6	12	112	0.00	29.735 
01:25	47.3	45.8	47.3	96	46.2	4	11	90	0.00	29.735 
01:30	47.3	47.3	47.3	96	46.2	3	7	90	0.00	29.724 
01:35	47.4	45.2	47.4	96	46.3	5	11	90	0.00	29.724 
01:40	47.4	45.2	47.4	96	46.3	5	13	112	0.00	29.724 
01:45	47.3	45.0	47.3	97	46.5	5	11	112	0.00	29.710 
01:50	47.3	45.8	47.3	97	46.5	4	11	90	0.00	29.710 
01:55	47.3	44.5	47.3	97	46.5	6	13	112	0.00	29.710 
02:00	47.1	44.2	47.1	97	46.3	6	12	112	0.00	29.705 
02:05	47.1	44.8	47.1	97	46.3	5	10	112	0.00	29.705 
02:10	47.1	44.2	47.1	97	46.3	6	12	90	0.00	29.705 
02:15	47.0	44.7	47.0	97	46.2	5	12	90	0.00	29.690 
02:20	47.0	44.1	47.0	97	46.2	6	12	112	0.00	29.690 
02:25	46.8	44.5	46.8	97	46.0	5	12	90	0.00	29.690 
02:30	46.8	44.5	46.8	97	46.0	5	13	90	0.00	29.679 
02:35	46.8	45.2	46.8	97	46.0	4	12	112	0.00	29.679 
02:40	46.8	43.9	46.8	97	46.0	6	14	90	0.00	29.679 
02:45	46.8	43.9	46.8	97	46.0	6	13	90	0.00	29.669 
02:50	46.8	45.2	46.8	97	46.0	4	9	90	0.00	29.669 
02:55	46.8	44.5	46.8	97	46.0	5	13	90	0.00	29.669 
03:00	46.8	44.5	46.8	97	46.0	5	11	112	0.00	29.662 
03:05	46.8	43.9	46.8	97	46.0	6	14	112	0.00	29.662 
03:10	46.8	45.2	46.8	97	46.0	4	9	112	0.00	29.662 
03:15	46.8	44.5	46.8	97	46.0	5	12	90	0.00	29.659 
03:20	46.8	44.5	46.8	97	46.0	5	11	112	0.00	29.659 
03:25	46.8	45.2	46.8	97	46.0	4	12	112	0.00	29.659 
03:30	46.8	45.2	46.8	97	46.0	4	10	112	0.00	29.647 
03:35	46.8	44.5	46.8	97	46.0	5	12	90	0.00	29.647 
03:40	46.7	44.3	46.7	97	45.9	5	10	112	0.00	29.647 
03:45	46.7	43.2	46.7	97	45.9	7	11	90	0.00	29.639 
03:50	46.5	43.5	46.5	97	45.7	6	11	112	0.00	29.639 
03:55	46.5	43.5	46.5	97	45.7	6	10	90	0.00	29.639 
04:00	46.5	44.1	46.5	97	45.7	5	11	90	0.00	29.624 
04:05	46.5	44.1	46.5	97	45.7	5	13	112	0.00	29.624 
04:10	46.5	44.1	46.5	97	45.7	5	11	112	0.00	29.624 
04:15	46.5	44.1	46.5	97	45.7	5	12	112	0.00	29.613 
04:20	46.7	44.3	46.7	97	45.9	5	10	90	0.00	29.613 
04:25	46.7	44.3	46.7	97	45.9	5	11	112	0.00	29.613 
04:30	46.8	45.2	46.8	97	46.0	4	11	90	0.00	29.600 
04:35	46.8	45.2	46.8	97	46.0	4	12	90	0.00	29.600 
04:40	46.8	45.2	46.8	97	46.0	4	10	112	0.00	29.600 
04:45	47.0	44.7	47.0	98	46.5	5	9	90	0.00	29.596 
04:50	47.0	44.7	47.0	98	46.5	5	13	112	0.00	29.596 
04:55	47.3	45.0	47.3	98	46.8	5	10	112	0.00	29.596 
05:00	47.3	45.8	47.3	98	46.8	4	10	112	0.00	29.584 
05:05	47.3	45.8	47.3	98	46.8	4	9	112	0.00	29.584 
05:10	47.4	45.2	47.4	98	46.9	5	10	90	0.00	29.584 
05:15	47.7	46.2	47.7	98	47.2	4	7	90	0.00	29.565 
05:20	48.0	45.9	48.0	98	47.5	5	9	112	0.00	29.565 
05:25	48.2	46.1	48.2	98	47.7	5	12	90	0.00	29.565 
05:30	48.6	46.6	48.6	98	48.1	5	10	112	0.00	29.542 
05:35	48.6	47.3	48.6	98	48.1	4	7	112	0.00	29.542 
05:40	48.8	47.5	48.8	98	48.3	4	10	112	0.00	29.542 
05:45	49.2	47.9	49.2	98	48.7	4	10	90	0.00	29.531 
05:50	49.1	47.2	49.1	98	48.6	5	11	90	0.00	29.531 
05:55	49.1	49.1	49.1	98	48.6	2	9	68	0.00	29.531 
06:00	49.4	48.2	49.4	98	48.9	4	7	90	0.00	29.520 
06:05	50.1	50.1	50.1	98	49.6	3	7	112	0.00	29.520 
06:10	51.1	51.1	51.1	98	50.6	7	14	112	0.00	29.520 
06:15	51.4	51.4	51.4	98	50.9	5	12	90	0.00	29.499 
06:20	51.4	51.4	51.4	98	50.9	3	7	112	0.00	29.499 
06:25	51.6	51.6	51.6	98	51.1	3	9	90	0.00	29.499 
06:30	51.9	51.9	51.9	98	51.4	4	9	112	0.00	29.473 
06:35	52.0	52.0	52.0	98	51.5	3	8	112	0.00	29.473 
06:40	52.2	52.2	52.2	98	51.7	2	7	112	0.00	29.473 
06:45	52.6	52.6	52.6	98	52.0	4	7	112	0.00	29.464 
06:50	52.8	52.8	52.8	98	52.2	3	7	112	0.00	29.464 
06:55	53.2	53.2	53.2	99	52.9	3	6	112	0.00	29.464 
07:00	53.5	53.5	53.5	99	53.2	1	4	112	0.00	29.464 
07:05	54.1	54.1	54.1	99	53.8	4	9	112	0.00	29.464 
07:10	54.5	54.5	54.5	99	54.2	3	6	112	0.00	29.464 
07:15	54.7	54.7	54.7	99	54.4	2	5	68	0.00	29.449 
07:20	55.0	55.0	55.0	99	54.7	2	4	90	0.00	29.449 
07:25	55.3	55.3	55.3	99	55.0	2	6	90	0.00	29.449 
07:30	55.6	55.6	55.6	99	55.3	1	4	112	0.00	29.452 
07:35	56.0	56.0	56.0	99	55.7	1	4	112	0.00	29.452 
07:40	56.2	56.2	56.2	99	55.9	0	2	112	0.00	29.452 
07:45	56.3	56.3	56.3	99	56.0	0	1	112	0.00	29.470 
07:50	56.6	56.6	56.6	99	56.3	0	2	112	0.00	29.470 
07:55	57.3	57.3	57.3	99	57.0	1	2	112	0.00	29.470 
08:00	58.6	58.6	58.6	99	58.3	2	6	90	0.00	29.478 
08:05	59.8	59.8	59.8	99	59.5	1	3	292	0.00	29.478 
08:10	60.5	60.5	60.5	99	60.2	2	5	270	0.00	29.478 
08:15	61.0	61.0	61.0	99	60.7	3	14	248	0.00	29.487 
08:20	61.3	61.3	61.3	99	61.0	3	11	248	0.00	29.487 
08:25	61.8	61.8	61.8	98	61.2	5	16	248	0.00	29.487 
08:30	62.0	62.0	62.0	98	61.4	4	10	248	0.00	29.506 
08:35	62.0	62.0	62.0	97	61.1	7	14	270	0.00	29.506 
08:40	62.6	62.6	62.6	93	60.5	5	13	270	0.00	29.506 
08:45	63.2	63.2	63.2	87	59.3	4	12	248	0.00	29.518 
08:50	63.9	63.9	63.9	83	58.6	3	7	248	0.00	29.518 
08:55	64.5	64.5	64.5	81	58.5	3	7	248	0.00	29.518 
09:00	65.2	65.2	65.2	78	58.2	4	7	248	0.00	29.516 
09:05	65.5	65.5	65.5	75	57.4	4	13	248	0.00	29.516 
09:10	65.6	65.6	65.6	72	56.3	5	13	248	0.00	29.516 
09:15	65.8	65.8	65.8	71	56.1	5	15	225	0.00	29.517 
09:20	66.0	66.0	66.0	70	55.9	4	11	248	0.00	29.517 
09:25	66.0	66.0	66.0	71	56.3	3	7	248	0.00	29.517 
09:30	66.1	66.1	66.1	69	55.6	5	16	248	0.00	29.517 
09:35	65.6	65.6	65.6	67	54.3	5	13	248	0.00	29.517 
09:40	65.0	65.0	65.0	69	54.6	6	15	248	0.00	29.517 
09:45	64.7	64.7	64.7	69	54.3	6	16	248	0.00	29.519 
09:50	64.5	64.5	64.5	70	54.5	4	13	225	0.00	29.519 
09:55	64.8	64.8	64.8	71	55.2	3	7	248	0.00	29.519 
10:00	65.0	65.0	65.0	71	55.4	3	11	270	0.00	29.521 
10:05	65.2	65.2	65.2	71	55.6	4	14	248	0.00	29.521 
10:10	65.3	65.3	65.3	69	54.9	4	12	248	0.00	29.521 
10:15	65.2	65.2	65.2	69	54.8	6	12	248	0.00	29.529 
10:20	65.3	65.3	65.3	70	55.3	4	9	248	0.00	29.529 
10:25	65.5	65.5	65.5	70	55.4	4	9	248	0.00	29.529 
10:30	65.5	65.5	65.5	70	55.4	4	13	248	0.00	29.533 
10:35	65.5	65.5	65.5	70	55.4	4	16	248	0.00	29.533 
10:40	65.2	65.2	65.2	69	54.8	5	13	248	0.00	29.533 
10:45	64.8	64.8	64.8	70	54.8	4	10	248	0.00	29.551 
10:50	64.7	64.7	64.7	71	55.1	4	10	270	0.00	29.551 
10:55	64.5	64.5	64.5	72	55.3	3	7	248	0.00	29.551 
11:00	64.5	64.5	64.5	72	55.3	3	7	248	0.00	29.555 
11:05	64.5	64.5	64.5	72	55.3	4	12	248	0.00	29.555 
11:10	64.7	64.7	64.7	71	55.1	4	12	248	0.00	29.555 
11:15	64.8	64.8	64.8	70	54.8	4	11	248	0.00	29.560 
11:20	65.0	65.0	65.0	70	55.0	3	13	248	0.00	29.560 
11:25	65.0	65.0	65.0	71	55.4	2	10	270	0.00	29.560 
11:30	65.0	65.0	65.0	71	55.4	2	7	270	0.00	29.565 
11:35	65.0	65.0	65.0	72	55.7	3	9	270	0.00	29.565 
11:40	65.2	65.2	65.2	70	55.2	4	13	248	0.00	29.565 
11:45	65.6	65.6	65.6	71	55.9	3	13	248	0.00	29.563 
11:50	66.3	66.3	66.3	69	55.8	4	10	270	0.00	29.563 
11:55	66.8	66.8	66.8	69	56.3	4	12	270	0.00	29.563 
12:00	66.8	66.8	66.8	69	56.3	2	5	248	0.00	29.567 
12:05	66.9	66.9	66.9	68	56.0	2	7	90	0.00	29.567 
12:10	66.8	66.8	66.8	67	55.5	3	7	90	0.00	29.567 
12:15	66.6	66.6	66.6	66	54.9	4	11	248	0.00	29.558 
12:20	66.4	66.4	66.4	69	55.9	3	12	270	0.00	29.558 
12:25	66.3	66.3	66.3	68	55.4	4	7	90	0.00	29.558 
12:30	66.3	66.3	66.3	69	55.8	2	9	270	0.00	29.562 
12:35	66.3	66.3	66.3	69	55.8	2	8	315	0.00	29.562 
12:40	66.0	66.0	66.0	69	55.5	2	9	248	0.00	29.562 
12:45	65.6	65.6	65.6	69	55.1	3	6	248	0.00	29.564 
12:50	65.5	65.5	65.5	69	55.1	3	14	90	0.00	29.564 
12:55	65.5	65.5	65.5	69	55.1	3	10	248	0.00	29.564 
13:00	65.6	65.6	65.6	70	55.5	2	7	22	0.00	29.563 
13:05	65.8	65.8	65.8	70	55.7	2	6	248	0.00	29.563 
13:10	66.1	66.1	66.1	70	56.0	3	13	270	0.00	29.563 
13:15	66.8	66.8	66.8	69	56.3	2	6	90	0.00	29.551 
13:20	67.4	67.4	67.4	68	56.5	3	7	90	0.00	29.551 
13:25	67.9	67.9	67.9	67	56.5	3	9	90	0.00	29.551 
13:30	68.3	68.3	68.3	67	56.9	3	12	270	0.00	29.550 
13:35	68.4	68.4	68.4	65	56.2	3	7	248	0.00	29.550 
13:40	68.9	68.9	68.9	65	56.6	3	13	0	0.00	29.550 
13:45	69.1	69.1	69.1	66	57.3	3	7	225	0.00	29.548 
13:50	69.4	69.4	69.4	65	57.1	4	10	270	0.00	29.548 
13:55	69.4	69.4	69.4	64	56.7	3	8	248	0.00	29.548 
14:00	68.4	68.4	68.4	65	56.2	6	15	270	0.00	29.552 
14:05	68.3	68.3	68.3	67	56.9	4	14	270	0.00	29.552 
14:10	68.3	68.3	68.3	66	56.5	4	9	248	0.00	29.552 
14:15	68.4	68.4	68.4	66	56.6	3	10	248	0.00	29.561 
14:20	68.8	68.8	68.8	66	57.0	4	14	248	0.00	29.561 
14:25	68.8	68.8	68.8	64	56.1	5	12	248	0.00	29.561 
14:30	68.9	68.9	68.9	64	56.2	4	13	248	0.00	29.560 
14:35	68.9	68.9	68.9	64	56.2	5	18	248	0.00	29.560 
14:40	69.1	69.1	69.1	65	56.8	3	12	270	0.00	29.560 
14:45	69.4	69.4	69.4	65	57.1	3	11	202	0.00	29.554 
14:50	69.8	69.8	69.8	62	56.2	3	12	248	0.00	29.554 
14:55	69.9	69.9	69.9	62	56.3	3	10	248	0.00	29.554 
15:00	70.3	70.3	70.3	61	56.2	4	11	248	0.00	29.552 
15:05	70.1	70.1	70.1	62	56.5	5	12	248	0.00	29.552 
15:10	69.9	69.9	69.9	61	55.8	4	10	248	0.00	29.552 
15:15	69.6	69.6	69.6	62	56.0	5	13	248	0.00	29.565 
15:20	69.6	69.6	69.6	62	56.0	4	9	248	0.00	29.565 
15:25	70.1	70.1	70.1	61	56.0	5	13	248	0.00	29.565 
15:30	70.8	70.8	70.8	60	56.2	5	14	270	0.00	29.555 
15:35	71.5	71.5	71.5	59	56.4	5	17	248	0.00	29.555 
15:40	72.1	72.1	72.1	58	56.5	4	11	248	0.00	29.555 
15:45	71.6	71.6	71.6	57	55.5	5	13	248	0.00	29.551 
15:50	71.1	71.1	71.1	58	55.6	4	11	248	0.00	29.551 
15:55	70.8	70.8	70.8	60	56.2	4	11	248	0.00	29.551 
16:00	70.6	70.6	70.6	62	56.9	4	15	248	0.00	29.550 
16:05	71.3	71.3	71.3	58	55.7	5	15	248	0.00	29.550 
16:10	71.5	71.5	71.5	59	56.4	4	12	248	0.00	29.550 
16:15	71.6	71.6	71.6	59	56.5	4	9	248	0.00	29.549 
16:20	71.6	71.6	71.6	59	56.5	4	16	248	0.00	29.549 
16:25	70.9	70.9	70.9	59	55.8	4	11	248	0.00	29.549 
16:30	70.8	70.8	70.8	61	56.7	3	8	248	0.00	29.553 
16:35	71.1	71.1	71.1	58	55.6	5	17	248	0.00	29.553 
16:40	71.3	71.3	71.3	58	55.7	6	16	248	0.00	29.553 
16:45	71.8	71.8	71.8	57	55.7	5	10	248	0.00	29.549 
16:50	71.8	71.8	71.8	58	56.2	4	15	248	0.00	29.549 
16:55	71.5	71.5	71.5	57	55.5	5	15	270	0.00	29.549 
17:00	71.5	71.5	71.5	60	56.9	3	9	248	0.00	29.549 
17:05	71.6	71.6	71.6	60	57.0	3	7	248	0.00	29.549 
17:10	71.3	71.3	71.3	58	55.7	4	12	248	0.00	29.549 
17:15	70.6	70.6	70.6	60	56.0	5	12	248	0.00	29.558 
17:20	70.6	70.6	70.6	61	56.5	4	11	248	0.00	29.558 
17:25	70.9	70.9	70.9	61	56.8	5	11	248	0.00	29.558 
17:30	71.1	71.1	71.1	61	57.0	3	9	248	0.00	29.553 
17:35	71.6	71.6	71.6	60	57.0	4	11	248	0.00	29.553 
17:40	71.3	71.3	71.3	59	56.2	5	15	270	0.00	29.553 
17:45	71.3	71.3	71.3	59	56.2	4	13	248	0.00	29.558 
17:50	71.3	71.3	71.3	60	56.7	5	12	248	0.00	29.558 
17:55	70.9	70.9	70.9	62	57.2	5	13	248	0.00	29.558 
18:00	70.9	70.9	70.9	62	57.2	4	10	248	0.00	29.571 
18:05	70.4	70.4	70.4	62	56.7	5	18	248	0.00	29.571 
18:10	70.3	70.3	70.3	63	57.1	4	12	270	0.00	29.571 
18:15	70.4	70.4	70.4	64	57.6	3	11	248	0.00	29.570 
18:20	70.3	70.3	70.3	63	57.1	5	14	270	0.00	29.570 
18:25	70.3	70.3	70.3	63	57.1	4	11	248	0.00	29.570 
18:30	70.3	70.3	70.3	64	57.5	3	12	270	0.00	29.571 
18:35	70.1	70.1	70.1	64	57.3	4	11	225	0.00	29.571 
18:40	69.9	69.9	69.9	64	57.2	4	10	248	0.00	29.571 
18:45	69.8	69.8	69.8	65	57.5	3	9	248	0.00	29.572 
18:50	69.8	69.8	69.8	64	57.1	4	12	248	0.00	29.572 
18:55	69.8	69.8	69.8	64	57.1	4	13	248	0.00	29.572 
19:00	69.8	69.8	69.8	65	57.5	4	10	248	0.00	29.572 
19:05	69.6	69.6	69.6	65	57.3	3	9	248	0.00	29.572 
19:10	69.8	69.8	69.8	65	57.5	3	11	248	0.00	29.572 
19:15	69.6	69.6	69.6	65	57.3	4	12	248	0.00	29.571 
19:20	69.4	69.4	69.4	65	57.1	4	15	248	0.00	29.571 
19:25	69.4	69.4	69.4	65	57.1	3	10	248	0.00	29.571 
19:30	69.3	69.3	69.3	65	57.0	3	9	270	0.00	29.572 
19:35	69.3	69.3	69.3	65	57.0	3	7	225	0.00	29.572 
19:40	69.3	69.3	69.3	65	57.0	3	11	248	0.00	29.572 
19:45	69.1	69.1	69.1	65	56.8	3	10	248	0.00	29.576 
19:50	69.1	69.1	69.1	65	56.8	3	10	248	0.00	29.576 
19:55	69.1	69.1	69.1	64	56.4	4	16	270	0.00	29.576 
20:00	69.1	69.1	69.1	65	56.8	3	10	248	0.00	29.584 
20:05	68.8	68.8	68.8	65	56.5	3	10	248	0.00	29.584 
20:10	68.6	68.6	68.6	66	56.8	2	7	248	0.00	29.584 
20:15	68.4	68.4	68.4	66	56.6	2	9	270	0.00	29.580 
20:20	68.4	68.4	68.4	67	57.0	3	12	225	0.00	29.580 
20:25	68.3	68.3	68.3	67	56.9	3	9	248	0.00	29.580 
20:30	68.1	68.1	68.1	67	56.7	2	6	248	0.00	29.583 
20:35	67.9	67.9	67.9	68	56.9	2	6	248	0.00	29.583 
20:40	67.8	67.8	67.8	68	56.8	2	6	270	0.00	29.583 
20:45	67.6	67.6	67.6	69	57.1	1	6	248	0.00	29.584 
20:50	67.6	67.6	67.6	69	57.1	1	3	225	0.00	29.584 
20:55	67.3	67.3	67.3	70	57.2	1	3	225	0.00	29.584 
21:00	67.1	67.1	67.1	70	57.0	1	3	225	0.00	29.584 
21:05	66.8	66.8	66.8	71	57.1	0	2	225	0.00	29.584 
21:10	66.6	66.6	66.6	72	57.3	1	5	248	0.00	29.584 
21:15	66.3	66.3	66.3	73	57.4	0	2	248	0.00	29.589 
21:20	66.1	66.1	66.1	73	57.2	0	1	248	0.00	29.589 
21:25	66.0	66.0	66.0	73	57.1	0	2	248	0.00	29.589 
21:30	65.6	65.6	65.6	74	57.1	0	2	248	0.00	29.596 
21:35	65.5	65.5	65.5	75	57.4	0	1	248	0.00	29.596 
21:40	65.3	65.3	65.3	75	57.2	1	3	112	0.00	29.596 
21:45	65.5	65.5	65.5	75	57.4	1	4	112	0.00	29.597 
21:50	65.5	65.5	65.5	76	57.7	0	3	135	0.00	29.597 
21:55	65.3	65.3	65.3	77	57.9	0	3	112	0.00	29.597 
22:00	65.2	65.2	65.2	79	58.5	1	9	112	0.00	29.597 
22:05	65.0	65.0	65.0	80	58.7	0	3	112	0.00	29.597 
22:10	64.8	64.8	64.8	80	58.5	0	1	112	0.00	29.597 
22:15	64.7	64.7	64.7	81	58.7	0	2	338	0.00	29.588 
22:20	64.5	64.5	64.5	82	58.9	0	2	338	0.00	29.588 
22:25	64.3	64.3	64.3	82	58.7	0	2	248	0.00	29.588 
22:30	64.3	64.3	64.3	83	59.0	1	4	248	0.00	29.608 
22:35	64.3	64.3	64.3	83	59.0	1	3	112	0.00	29.608 
22:40	64.3	64.3	64.3	83	59.0	0	3	338	0.00	29.608 
22:45	64.3	64.3	64.3	83	59.0	1	4	90	0.00	29.611 
22:50	64.3	64.3	64.3	83	59.0	0	2	225	0.00	29.611 
22:55	64.3	64.3	64.3	83	59.0	0	2	270	0.00	29.611 
23:00	64.3	64.3	64.3	83	59.0	0	2	270	0.00	29.618 
23:05	64.3	64.3	64.3	84	59.4	0	2	270	0.00	29.618 
23:10	64.3	64.3	64.3	84	59.4	0	2	270	0.00	29.618 
23:15	64.2	64.2	64.2	84	59.3	0	2	270	0.00	29.616 
23:20	64.2	64.2	64.2	84	59.3	0	1	270	0.00	29.616 
23:25	64.0	64.0	64.0	85	59.4	0	2	270	0.00	29.616 
23:30	64.0	64.0	64.0	85	59.4	0	1	270	0.00	29.616 
23:35	64.0	64.0	64.0	86	59.7	0	2	270	0.00	29.616 
23:40	63.9	63.9	63.9	86	59.6	0	2	270	0.00	29.616 
23:45	63.9	63.9	63.9	86	59.6	0	2	270	0.00	29.617 
23:50	63.7	63.7	63.7	87	59.8	0	2	270	0.00	29.617 
23:55	63.7	63.7	63.7	87	59.8	1	4	248	0.00	29.617 

CoCoRaHS
IN-AL-39
A2 Web Hosting
Creative Commons License
GoDaddy
search engine by freefind advanced

loaded 2018-11-15 13:53:15 • last modified 2010-11-18 10:43:29
Privacy PolicyDisclaimer
• wx.awcolley.com is powered by PmWiki v.2002016 •
• all content (unless otherwise noted) © 2018 A W Colley